Time;durP1;ratioP1;P1;durP2;ratioP2;P2;SDS_P1;SDS_P2;PMS_P1;PMS_P2;Temp;Humidity;BMP_temperature;BMP_pressure;BME280_temperature;BME280_humidity;BME280_pressure;Samples;Min_cycle;Max_cycle;Signal;HPM_P1;HPM_P2
2020/12/14 00:00:09;;;;;;;;;;;;;;;27.19;27.88;100176.38;5078533;28;722;-35
2020/12/14 00:02:34;;;;;;;;;;;;;;;26.86;28.57;100188.53;5079282;28;818;-34
2020/12/14 00:05:00;;;;;;;;;;;;;;;27.30;28.07;100184.94;5079475;28;867;-35
2020/12/14 00:07:25;;;;;;;;;;;;;;;27.93;27.07;100183.19;5063214;28;1009;-34
2020/12/14 00:09:50;;;;;;;;;;;;;;;28.22;26.85;100192.03;5066935;28;1069;-35
2020/12/14 00:12:16;;;;;;;;;;;;;;;28.31;26.61;100198.09;5078830;28;1971;-34
2020/12/14 00:14:41;;;;;;;;;;;;;;;28.39;26.37;100199.78;5078532;28;763;-33
2020/12/14 00:17:06;;;;;;;;;;;;;;;28.48;26.52;100198.53;5078957;28;804;-33
2020/12/14 00:19:31;;;;;;;;;;;;;;;28.77;25.84;100198.38;5078664;28;1328;-33
2020/12/14 00:21:58;;;;;;;;;;;;;;;28.80;26.06;100197.94;5067746;28;1085;-33
2020/12/14 00:24:23;;;;;;;;;;;;;;;28.50;26.21;100209.16;5058032;28;836;-33
2020/12/14 00:26:49;;;;;;;;;;;;;;;27.95;27.28;100209.00;5058792;28;772;-33
2020/12/14 00:29:14;;;;;;;;;;;;;;;28.51;26.72;100208.94;5058304;28;814;-33
2020/12/14 00:31:39;;;;;;;;;;;;;;;28.79;26.00;100210.66;5058765;28;1983;-33
2020/12/14 00:34:04;;;;;;;;;;;;;;;28.66;26.45;100211.47;5058775;28;979;-33
2020/12/14 00:36:30;;;;;;;;;;;;;;;28.88;26.04;100224.00;5058197;28;971;-33
2020/12/14 00:38:55;;;;;;;;;;;;;;;29.06;25.71;100217.97;5058769;28;802;-32
2020/12/14 00:41:20;;;;;;;;;;;;;;;28.96;25.74;100221.09;5058539;28;756;-34
2020/12/14 00:43:46;;;;;;;;;;;;;;;28.55;26.79;100231.03;5058270;28;808;-34
2020/12/14 00:46:12;;;;;;;;;;;;;;;28.66;26.68;100222.28;5064960;28;1140;-34
2020/12/14 00:48:37;;;;;;;;;;;;;;;27.91;27.70;100217.72;5079106;28;735;-34
2020/12/14 00:51:03;;;;;;;;;;;;;;;27.99;27.69;100209.44;5074336;28;1968;-33
2020/12/14 00:53:28;;;;;;;;;;;;;;;28.64;26.83;100216.28;5058381;28;759;-32
2020/12/14 00:55:53;;;;;;;;;;;;;;;29.03;25.88;100218.41;5058398;28;878;-33
2020/12/14 00:58:18;;;;;;;;;;;;;;;28.95;25.84;100205.88;5058140;28;764;-33
2020/12/14 01:00:44;;;;;;;;;;;;;;;28.57;26.72;100215.44;5058316;28;879;-33
2020/12/14 01:03:09;;;;;;;;;;;;;;;28.31;26.96;100206.19;5058213;28;811;-33
2020/12/14 01:05:34;;;;;;;;;;;;;;;28.24;27.19;100219.72;5057997;28;775;-32
2020/12/14 01:08:00;;;;;;;;;;;;;;;28.33;27.17;100210.38;5057993;28;979;-33
2020/12/14 01:10:25;;;;;;;;;;;;;;;28.73;26.78;100209.63;5058084;28;1977;-33
2020/12/14 01:12:50;;;;;;;;;;;;;;;29.25;25.77;100220.84;5058097;28;783;-33
2020/12/14 01:15:15;;;;;;;;;;;;;;;29.21;25.91;100212.34;5057887;28;772;-33
2020/12/14 01:17:41;;;;;;;;;;;;;;;28.99;26.03;100225.28;5058159;28;820;-33
2020/12/14 01:20:06;;;;;;;;;;;;;;;28.64;26.64;100221.69;5057491;28;1111;-33
2020/12/14 01:22:32;;;;;;;;;;;;;;;28.65;26.68;100226.06;5057120;28;1010;-32
2020/12/14 01:24:57;;;;;;;;;;;;;;;28.77;26.42;100228.97;5057913;28;780;-32
2020/12/14 01:27:22;;;;;;;;;;;;;;;28.54;26.84;100224.81;5057528;28;783;-33
2020/12/14 01:29:48;;;;;;;;;;;;;;;29.28;25.64;100215.06;5057589;28;757;-33
2020/12/14 01:32:13;;;;;;;;;;;;;;;29.16;25.62;100212.94;5057767;28;1914;-33
2020/12/14 01:34:38;;;;;;;;;;;;;;;28.99;25.55;100200.91;5057087;28;764;-32
2020/12/14 01:37:03;;;;;;;;;;;;;;;28.41;26.80;100195.81;5057639;28;983;-33
2020/12/14 01:39:29;;;;;;;;;;;;;;;28.79;26.37;100199.00;5057659;28;763;-33
2020/12/14 01:41:54;;;;;;;;;;;;;;;28.91;26.16;100199.22;5057065;28;806;-33
2020/12/14 01:44:19;;;;;;;;;;;;;;;29.03;26.29;100200.25;5057246;28;811;-35
2020/12/14 01:46:44;;;;;;;;;;;;;;;29.48;25.43;100195.19;5068562;28;1120;-33
2020/12/14 01:49:10;;;;;;;;;;;;;;;29.24;25.77;100194.81;5076866;28;832;-33
2020/12/14 01:51:35;;;;;;;;;;;;;;;29.08;25.52;100192.34;5068857;28;1972;-34
2020/12/14 01:54:02;;;;;;;;;;;;;;;28.48;27.18;100180.44;5057582;28;911;-34
2020/12/14 01:56:28;;;;;;;;;;;;;;;28.99;25.99;100184.66;5039229;28;823;-31
2020/12/14 01:58:53;;;;;;;;;;;;;;;29.31;25.63;100184.81;5057084;28;862;-33
2020/12/14 02:01:18;;;;;;;;;;;;;;;29.21;25.79;100182.56;5057262;28;776;-34
2020/12/14 02:03:43;;;;;;;;;;;;;;;29.12;25.68;100183.81;5057308;28;839;-35
2020/12/14 02:06:09;;;;;;;;;;;;;;;28.90;26.35;100181.28;5056837;28;987;-33
2020/12/14 02:08:34;;;;;;;;;;;;;;;28.78;26.42;100181.91;5057090;28;763;-34
2020/12/14 02:10:59;;;;;;;;;;;;;;;29.04;26.12;100183.00;5056768;28;1961;-33
2020/12/14 02:13:26;;;;;;;;;;;;;;;29.51;25.55;100182.03;5056971;28;898;-33
2020/12/14 02:15:51;;;;;;;;;;;;;;;28.82;26.80;100176.94;5039221;28;745;-35
2020/12/14 02:18:16;;;;;;;;;;;;;;;29.40;25.65;100177.28;5056663;28;1178;-33
2020/12/14 02:20:42;;;;;;;;;;;;;;;29.27;25.84;100183.56;5056383;28;991;-33
2020/12/14 02:23:32;;;;;;;;;;;;;;;28.82;26.68;100191.31;5039061;28;847;-34
2020/12/14 02:25:57;;;;;;;;;;;;;;;29.01;26.29;100191.50;5056609;28;860;-34
2020/12/14 02:28:23;;;;;;;;;;;;;;;29.28;25.86;100193.38;5056482;28;784;-35
2020/12/14 02:30:48;;;;;;;;;;;;;;;29.18;26.31;100186.50;5056267;28;1906;-33
2020/12/14 02:33:16;;;;;;;;;;;;;;;29.24;25.84;100182.13;5056802;28;808;-33
2020/12/14 02:35:45;;;;;;;;;;;;;;;29.24;26.01;100189.41;5056489;28;1073;-34
2020/12/14 02:38:11;;;;;;;;;;;;;;;28.52;27.16;100183.59;5056549;28;819;-34
2020/12/14 02:40:36;;;;;;;;;;;;;;;28.69;26.74;100186.72;5056704;28;728;-34
2020/12/14 02:43:01;;;;;;;;;;;;;;;28.96;26.64;100184.00;5056338;28;775;-34
2020/12/14 02:45:26;;;;;;;;;;;;;;;29.18;26.50;100182.94;5056719;28;1069;-33
2020/12/14 02:47:52;;;;;;;;;;;;;;;29.49;26.10;100191.44;5076358;28;755;-35
2020/12/14 02:50:17;;;;;;;;;;;;;;;29.37;25.69;100183.13;5075905;28;1962;-32
2020/12/14 02:52:42;;;;;;;;;;;;;;;29.02;26.29;100167.97;5058430;28;1013;-34
2020/12/14 02:55:08;;;;;;;;;;;;;;;29.06;26.28;100169.25;5056526;28;887;-33
2020/12/14 02:57:33;;;;;;;;;;;;;;;29.25;26.22;100164.81;5056329;28;828;-32
2020/12/14 02:59:58;;;;;;;;;;;;;;;29.45;25.65;100172.06;5056342;28;760;-34
2020/12/14 03:02:23;;;;;;;;;;;;;;;29.19;26.37;100165.69;5056575;28;862;-33
2020/12/14 03:04:49;;;;;;;;;;;;;;;29.33;25.64;100174.59;5055995;28;807;-34
2020/12/14 03:07:14;;;;;;;;;;;;;;;29.24;25.65;100186.69;5069718;28;955;-33
2020/12/14 03:09:39;;;;;;;;;;;;;;;28.47;27.68;100180.66;5076429;28;810;-33
2020/12/14 03:12:05;;;;;;;;;;;;;;;29.08;26.32;100192.34;5076176;28;1964;-33
2020/12/14 03:14:30;;;;;;;;;;;;;;;29.50;25.89;100195.81;5076029;28;827;-33
2020/12/14 03:16:58;;;;;;;;;;;;;;;29.05;26.87;100184.66;5076513;28;732;-33
2020/12/14 03:19:23;;;;;;;;;;;;;;;29.36;25.74;100190.44;5075494;28;1205;-34
2020/12/14 03:21:49;;;;;;;;;;;;;;;29.19;25.69;100201.72;5066051;28;955;-33
2020/12/14 03:24:14;;;;;;;;;;;;;;;29.07;26.27;100198.81;5056262;28;787;-34
2020/12/14 03:26:39;;;;;;;;;;;;;;;29.04;26.30;100209.22;5055664;28;760;-35
2020/12/14 03:29:05;;;;;;;;;;;;;;;29.61;25.85;100222.31;5056361;28;795;-35
2020/12/14 03:31:30;;;;;;;;;;;;;;;28.98;26.58;100226.31;5056189;28;1918;-33
2020/12/14 03:33:56;;;;;;;;;;;;;;;29.21;26.13;100223.19;5055588;28;831;-34
2020/12/14 03:36:21;;;;;;;;;;;;;;;29.12;26.15;100213.59;5062254;28;1014;-29
2020/12/14 03:38:47;;;;;;;;;;;;;;;28.90;27.06;100232.72;5075861;28;776;-35
2020/12/14 03:41:13;;;;;;;;;;;;;;;28.75;26.85;100236.47;5075874;28;784;-36
2020/12/14 03:43:38;;;;;;;;;;;;;;;29.46;25.83;100236.88;5076252;28;831;-34
2020/12/14 03:46:03;;;;;;;;;;;;;;;29.37;25.95;100249.00;5076477;28;1104;-34
2020/12/14 03:48:28;;;;;;;;;;;;;;;29.09;26.08;100250.88;5075711;28;838;-33
2020/12/14 03:50:54;;;;;;;;;;;;;;;28.65;27.05;100242.28;5073260;28;1964;-34
2020/12/14 03:53:19;;;;;;;;;;;;;;;29.00;26.41;100246.72;5056117;28;804;-33
2020/12/14 03:55:44;;;;;;;;;;;;;;;29.29;26.20;100241.94;5055786;28;834;-34
2020/12/14 03:58:10;;;;;;;;;;;;;;;28.92;26.60;100241.47;5056875;28;846;-34
2020/12/14 04:00:35;;;;;;;;;;;;;;;29.24;25.95;100241.72;5059304;28;776;-34
2020/12/14 04:03:02;;;;;;;;;;;;;;;29.07;25.91;100242.16;5059180;28;788;-33
2020/12/14 04:05:27;;;;;;;;;;;;;;;28.81;27.16;100241.06;5059092;28;852;-34
2020/12/14 04:07:52;;;;;;;;;;;;;;;29.13;26.32;100231.53;5058858;28;935;-33
2020/12/14 04:10:18;;;;;;;;;;;;;;;29.44;25.84;100235.44;5059016;28;1909;-35
2020/12/14 04:12:43;;;;;;;;;;;;;;;27.96;23.61;100247.69;5059149;28;772;-32
2020/12/14 04:15:08;;;;;;;;;;;;;;;25.30;25.93;100245.13;5058736;28;864;-36
2020/12/14 04:17:33;;;;;;;;;;;;;;;24.54;26.16;100250.22;5058842;28;776;-30
2020/12/14 04:19:59;;;;;;;;;;;;;;;24.94;26.80;100252.81;5059025;28;1088;-34
2020/12/14 04:22:24;;;;;;;;;;;;;;;24.01;26.49;100260.69;5058652;28;1001;-37
2020/12/14 04:24:49;;;;;;;;;;;;;;;23.29;26.67;100260.50;5058899;28;824;-31
2020/12/14 04:27:14;;;;;;;;;;;;;;;23.34;26.31;100264.34;5076095;28;874;-35
2020/12/14 04:29:40;;;;;;;;;;;;;;;23.64;27.16;100269.19;5098978;28;856;-31
2020/12/14 04:32:05;;;;;;;;;;;;;;;26.31;25.24;100274.50;5099002;28;1914;-36
2020/12/14 04:34:30;;;;;;;;;;;;;;;27.18;24.81;100285.38;5099058;28;782;-28
2020/12/14 04:36:56;;;;;;;;;;;;;;;25.54;24.53;100286.31;5076686;28;994;-28
2020/12/14 04:39:21;;;;;;;;;;;;;;;23.12;26.65;100284.66;5058428;28;799;-36
2020/12/14 04:41:46;;;;;;;;;;;;;;;22.98;26.75;100289.69;5058155;28;808;-37
2020/12/14 04:44:11;;;;;;;;;;;;;;;23.15;27.64;100288.84;5058624;28;760;-37
2020/12/14 04:46:37;;;;;;;;;;;;;;;22.34;28.92;100285.66;5068540;28;1148;-37
2020/12/14 04:49:03;;;;;;;;;;;;;;;23.37;28.71;100290.03;5077944;28;857;-37
2020/12/14 04:51:28;;;;;;;;;;;;;;;24.73;29.57;100292.94;5076547;28;1901;-40
2020/12/14 04:53:53;;;;;;;;;;;;;;;24.80;29.16;100300.16;5077763;28;1315;-38
2020/12/14 04:56:18;;;;;;;;;;;;;;;24.59;28.65;100300.75;5077944;28;783;-28
2020/12/14 04:58:44;;;;;;;;;;;;;;;24.58;29.00;100308.00;5060142;28;812;-28
2020/12/14 05:01:09;;;;;;;;;;;;;;;21.65;29.91;100300.66;5078205;28;736;-37
2020/12/14 05:03:34;;;;;;;;;;;;;;;19.90;31.50;100301.50;5077981;28;775;-40
2020/12/14 05:06:00;;;;;;;;;;;;;;;21.48;29.09;100304.22;5074998;28;947;-29
2020/12/14 05:08:29;;;;;;;;;;;;;;;20.70;29.30;100302.00;5057911;28;832;-26
2020/12/14 05:10:54;;;;;;;;;;;;;;;19.73;30.89;100294.25;5057079;28;1898;-35
2020/12/14 05:13:19;;;;;;;;;;;;;;;19.04;32.90;100314.63;5058115;28;871;-36
2020/12/14 05:15:45;;;;;;;;;;;;;;;20.56;30.05;100316.72;5064526;28;740;-37
2020/12/14 05:18:10;;;;;;;;;;;;;;;20.85;29.16;100307.69;5077525;28;1064;-35
2020/12/14 05:20:36;;;;;;;;;;;;;;;21.00;28.95;100321.38;5077963;28;755;-36
2020/12/14 05:23:01;;;;;;;;;;;;;;;20.89;29.23;100332.25;5057906;28;983;-37
2020/12/14 05:25:27;;;;;;;;;;;;;;;22.16;28.27;100339.31;5057360;28;815;-38
2020/12/14 05:28:04;;;;;;;;;;;;;;;22.69;27.04;100333.88;5058157;28;724;-38
2020/12/14 05:30:36;;;;;;;;;;;;;;;22.27;26.85;100346.25;5057284;28;1910;-37
2020/12/14 05:33:02;;;;;;;;;;;;;;;21.42;27.96;100329.75;5057413;28;728;-39
2020/12/14 05:35:37;;;;;;;;;;;;;;;22.71;26.30;100337.22;5076931;28;1285;-34
2020/12/14 05:38:09;;;;;;;;;;;;;;;21.92;27.69;100345.38;5069973;28;1163;-35
2020/12/14 05:40:34;;;;;;;;;;;;;;;22.17;27.40;100345.53;5077274;28;1421;-36
2020/12/14 05:43:00;;;;;;;;;;;;;;;22.32;26.83;100349.28;5077006;28;1199;-35
2020/12/14 05:45:25;;;;;;;;;;;;;;;19.85;30.26;100343.81;5059326;28;1322;-32
2020/12/14 05:47:50;;;;;;;;;;;;;;;20.32;30.18;100358.16;5059942;28;815;-37
2020/12/14 05:50:16;;;;;;;;;;;;;;;26.40;22.39;100373.16;5070984;28;1957;-38
2020/12/14 05:52:46;;;;;;;;;;;;;;;26.76;22.06;100369.66;5057657;28;808;-35
2020/12/14 05:55:11;;;;;;;;;;;;;;;27.29;21.91;100377.72;5057697;28;815;-38
2020/12/14 05:57:37;;;;;;;;;;;;;;;25.63;21.91;100362.47;5055768;28;755;-35
2020/12/14 06:00:05;;;;;;;;;;;;;;;26.96;21.25;100376.31;5057259;28;800;-36
2020/12/14 06:02:30;;;;;;;;;;;;;;;28.07;18.71;100368.78;5057180;28;851;-35
2020/12/14 06:04:56;;;;;;;;;;;;;;;25.57;21.52;100372.09;5056507;28;963;-34
2020/12/14 06:07:25;;;;;;;;;;;;;;;30.36;16.55;100382.09;5056976;28;828;-36
2020/12/14 06:10:17;;;;;;;;;;;;;;;27.57;19.62;100372.34;5057455;28;776;-36
2020/12/14 06:12:44;;;;;;;;;;;;;;;27.84;18.95;100375.25;5053436;28;1361;-37
2020/12/14 06:15:10;;;;;;;;;;;;;;;28.40;18.51;100379.97;5056813;28;808;-35
2020/12/14 06:17:36;;;;;;;;;;;;;;;28.43;18.56;100372.31;5057227;28;783;-38
2020/12/14 06:20:05;;;;;;;;;;;;;;;29.74;17.94;100377.81;5055740;28;1068;-36
2020/12/14 06:22:31;;;;;;;;;;;;;;;29.00;19.57;100379.41;5056058;28;756;-36
2020/12/14 06:24:59;;;;;;;;;;;;;;;29.18;19.39;100372.53;5056485;28;804;-36
2020/12/14 06:27:26;;;;;;;;;;;;;;;28.79;20.36;100381.19;5038618;28;832;-36
2020/12/14 06:29:51;;;;;;;;;;;;;;;28.46;20.84;100377.31;5061532;28;1143;-36
2020/12/14 06:32:35;;;;;;;;;;;;;;;28.40;21.07;100386.25;5076652;28;1913;-37
2020/12/14 06:35:00;;;;;;;;;;;;;;;28.48;21.23;100377.09;5072828;28;971;-36
2020/12/14 06:37:26;;;;;;;;;;;;;;;28.50;21.05;100369.63;5056825;28;799;-35
2020/12/14 06:39:58;;;;;;;;;;;;;;;28.62;21.27;100369.91;5038581;28;1444;-37
2020/12/14 06:42:24;;;;;;;;;;;;;;;28.80;21.09;100384.72;5055890;28;854;-37
2020/12/14 06:44:49;;;;;;;;;;;;;;;28.72;21.08;100373.06;5056747;28;779;-36
2020/12/14 06:47:15;;;;;;;;;;;;;;;28.82;20.96;100358.28;5056439;28;851;-37
2020/12/14 06:49:42;;;;;;;;;;;;;;;28.82;20.98;100364.53;5056186;28;947;-36
2020/12/14 06:52:08;;;;;;;;;;;;;;;28.71;21.55;100360.53;5056395;28;1906;-37
2020/12/14 06:54:42;;;;;;;;;;;;;;;29.48;20.61;100361.31;5056478;28;819;-37
2020/12/14 06:57:08;;;;;;;;;;;;;;;29.68;20.39;100360.50;5055977;28;752;-33
2020/12/14 06:59:33;;;;;;;;;;;;;;;29.75;20.49;100366.75;5056532;28;784;-36
2020/12/14 07:01:59;;;;;;;;;;;;;;;29.84;20.16;100369.25;5056237;28;819;-40
2020/12/14 07:04:33;;;;;;;;;;;;;;;30.06;19.67;100370.66;5056210;28;780;-40
2020/12/14 07:07:21;;;;;;;;;;;;;;;30.16;19.80;100381.06;5056296;28;940;-37
2020/12/14 07:09:46;;;;;;;;;;;;;;;29.32;19.04;100378.81;5048147;28;1453;-34
2020/12/14 07:12:12;;;;;;;;;;;;;;;27.98;21.72;100384.31;5036994;28;1959;-36
2020/12/14 07:14:50;;;;;;;;;;;;;;;28.56;21.41;100382.34;5056196;28;824;-37
2020/12/14 07:17:19;;;;;;;;;;;;;;;29.38;20.15;100388.81;5056355;28;803;-37
2020/12/14 07:19:44;;;;;;;;;;;;;;;29.38;20.19;100386.13;5055190;28;1111;-37
2020/12/14 07:22:10;;;;;;;;;;;;;;;29.28;20.64;100386.53;5056285;28;866;-37
2020/12/14 07:24:35;;;;;;;;;;;;;;;29.38;20.29;100386.13;5038246;28;1305;-38
2020/12/14 07:27:00;;;;;;;;;;;;;;;29.45;19.89;100386.13;5055420;28;784;-37
2020/12/14 07:29:26;;;;;;;;;;;;;;;29.70;19.80;100396.34;5057425;28;1136;-37
2020/12/14 07:31:52;;;;;;;;;;;;;;;29.74;19.75;100388.66;5076234;28;1950;-36
2020/12/14 07:34:17;;;;;;;;;;;;;;;29.80;19.71;100388.66;5078426;28;720;-37
2020/12/14 07:36:42;;;;;;;;;;;;;;;30.08;19.82;100400.28;5062462;28;994;-37
2020/12/14 07:39:07;;;;;;;;;;;;;;;30.26;19.32;100396.09;5059941;28;772;-37
2020/12/14 07:41:33;;;;;;;;;;;;;;;30.31;19.66;100399.00;5059439;28;732;-37
2020/12/14 07:43:59;;;;;;;;;;;;;;;30.33;19.48;100398.78;5059915;28;752;-36
2020/12/14 07:46:29;;;;;;;;;;;;;;;30.43;19.35;100405.44;5059814;28;869;-36
2020/12/14 07:48:54;;;;;;;;;;;;;;;30.43;19.64;100402.72;5059206;28;772;-37
2020/12/14 07:51:19;;;;;;;;;;;;;;;29.90;20.14;100409.06;5059465;28;1966;-38
2020/12/14 07:53:45;;;;;;;;;;;;;;;28.35;20.47;100410.34;5059348;28;812;-38
2020/12/14 07:56:10;;;;;;;;;;;;;;;29.17;20.64;100417.78;5059402;28;742;-38
2020/12/14 07:58:48;;;;;;;;;;;;;;;29.71;20.06;100427.88;5059575;28;824;-38
2020/12/14 08:01:14;;;;;;;;;;;;;;;29.67;19.76;100435.56;5059441;28;763;-37
2020/12/14 08:03:39;;;;;;;;;;;;;;;29.65;20.02;100440.38;5059025;28;741;-38
2020/12/14 08:06:11;;;;;;;;;;;;;;;29.63;20.15;100437.03;5059109;28;912;-37
2020/12/14 08:08:37;;;;;;;;;;;;;;;29.80;19.38;100440.16;5059271;28;749;-40
2020/12/14 08:11:03;;;;;;;;;;;;;;;29.96;19.28;100440.78;5041384;28;1898;-38
2020/12/14 08:13:28;;;;;;;;;;;;;;;30.08;19.49;100443.66;5041838;28;777;-37
2020/12/14 08:15:53;;;;;;;;;;;;;;;30.18;19.32;100444.06;5058879;28;887;-38
2020/12/14 08:18:18;;;;;;;;;;;;;;;30.29;19.19;100439.09;5058884;28;1135;-39
2020/12/14 08:20:44;;;;;;;;;;;;;;;30.50;18.98;100440.69;5041479;28;980;-38
2020/12/14 08:23:16;;;;;;;;;;;;;;;30.60;19.14;100439.41;5058685;28;822;-38
2020/12/14 08:25:49;;;;;;;;;;;;;;;30.64;19.15;100435.22;5058795;28;760;-38
2020/12/14 08:28:15;;;;;;;;;;;;;;;29.81;20.09;100436.38;5059121;28;751;-38
2020/12/14 08:30:40;;;;;;;;;;;;;;;28.58;21.62;100423.56;5070091;28;1922;-37
2020/12/14 08:33:08;;;;;;;;;;;;;;;29.74;20.34;100424.72;5078983;28;772;-35
2020/12/14 08:35:33;;;;;;;;;;;;;;;30.92;18.99;100428.63;5070140;28;1026;-38
2020/12/14 08:38:06;;;;;;;;;;;;;;;30.70;19.00;100420.78;5058841;28;756;-38
2020/12/14 08:40:31;;;;;;;;;;;;;;;30.35;19.44;100429.25;5058579;28;744;-39
2020/12/14 08:43:07;;;;;;;;;;;;;;;30.15;19.74;100425.50;5058385;28;847;-37
2020/12/14 08:45:32;;;;;;;;;;;;;;;30.22;19.80;100420.09;5057653;28;784;-37
2020/12/14 08:47:59;;;;;;;;;;;;;;;30.34;19.63;100423.00;5058343;28;748;-37
2020/12/14 08:50:24;;;;;;;;;;;;;;;28.71;21.42;100420.09;5057738;28;1980;-38
2020/12/14 08:52:59;;;;;;;;;;;;;;;28.25;22.54;100421.50;5058576;28;860;-39
2020/12/14 08:55:33;;;;;;;;;;;;;;;28.22;22.37;100417.34;5058275;28;842;-36
2020/12/14 08:57:58;;;;;;;;;;;;;;;27.86;23.16;100410.22;5058312;28;780;-37
2020/12/14 09:00:24;;;;;;;;;;;;;;;27.28;24.12;100411.16;5058373;28;772;-36
2020/12/14 09:02:49;;;;;;;;;;;;;;;27.65;23.69;100414.59;5058019;28;832;-37
2020/12/14 09:05:15;;;;;;;;;;;;;;;28.28;22.85;100395.94;5039858;28;1313;-37
2020/12/14 09:07:40;;;;;;;;;;;;;;;28.11;22.93;100423.31;5058257;28;809;-37
2020/12/14 09:10:19;;;;;;;;;;;;;;;27.86;23.43;100402.13;5057935;28;756;-38
2020/12/14 09:12:44;;;;;;;;;;;;;;;29.35;21.35;100410.91;5058124;28;1897;-38
2020/12/14 09:15:09;;;;;;;;;;;;;;;29.54;21.14;100412.00;5058153;28;812;-38
2020/12/14 09:17:36;;;;;;;;;;;;;;;29.63;21.16;100412.63;5057189;28;806;-38
2020/12/14 09:20:01;;;;;;;;;;;;;;;29.81;20.99;100405.75;5057901;28;1091;-33
2020/12/14 09:22:26;;;;;;;;;;;;;;;29.99;20.68;100410.53;5058036;28;766;-37
2020/12/14 09:24:52;;;;;;;;;;;;;;;30.14;20.26;100413.00;5057386;28;783;-37
2020/12/14 09:27:17;;;;;;;;;;;;;;;30.31;20.28;100421.53;5058033;28;856;-36
2020/12/14 09:29:43;;;;;;;;;;;;;;;30.46;20.12;100425.91;5067140;28;1539;-36
2020/12/14 09:32:09;;;;;;;;;;;;;;;29.83;20.89;100403.66;5077101;28;1910;-35
2020/12/14 09:34:35;;;;;;;;;;;;;;;28.21;22.75;100417.53;5077631;28;1002;-34
2020/12/14 09:37:00;;;;;;;;;;;;;;;29.01;22.42;100412.75;5077473;28;791;-35
2020/12/14 09:39:26;;;;;;;;;;;;;;;29.69;21.27;100425.38;5077476;28;875;-37
2020/12/14 09:41:52;;;;;;;;;;;;;;;29.69;20.93;100427.22;5077353;28;874;-37
2020/12/14 09:44:17;;;;;;;;;;;;;;;29.67;20.63;100424.72;5077366;28;776;-36
2020/12/14 09:46:43;;;;;;;;;;;;;;;29.71;20.35;100430.56;5077145;28;796;-36
2020/12/14 09:49:08;;;;;;;;;;;;;;;29.89;19.76;100427.22;5077159;28;816;-37
2020/12/14 09:51:34;;;;;;;;;;;;;;;29.97;20.22;100431.59;5060614;28;1961;-34
2020/12/14 09:53:59;;;;;;;;;;;;;;;30.01;19.71;100434.72;5056845;28;827;-38
2020/12/14 09:56:24;;;;;;;;;;;;;;;30.21;19.17;100442.03;5057151;28;776;-37
2020/12/14 09:58:50;;;;;;;;;;;;;;;30.28;19.04;100438.25;5057150;28;847;-37
2020/12/14 10:01:15;;;;;;;;;;;;;;;30.26;18.54;100437.63;5056979;28;759;-35
2020/12/14 10:03:40;;;;;;;;;;;;;;;30.44;18.48;100436.13;5056913;28;820;-37
2020/12/14 10:06:06;;;;;;;;;;;;;;;29.56;18.71;100431.56;5056838;28;951;-37
2020/12/14 10:08:31;;;;;;;;;;;;;;;28.16;20.34;100433.53;5057029;28;756;-32
2020/12/14 10:10:56;;;;;;;;;;;;;;;29.27;19.50;100428.22;5056918;28;1961;-40
2020/12/14 10:13:22;;;;;;;;;;;;;;;30.58;18.41;100426.03;5057037;28;740;-35
2020/12/14 10:15:48;;;;;;;;;;;;;;;30.75;18.23;100418.25;5056929;28;768;-39
2020/12/14 10:18:13;;;;;;;;;;;;;;;30.27;18.75;100404.03;5056736;28;1028;-36
2020/12/14 10:20:38;;;;;;;;;;;;;;;30.13;18.77;100389.63;5056815;28;967;-38
2020/12/14 10:23:04;;;;;;;;;;;;;;;30.02;18.75;100380.28;5056970;28;855;-37
2020/12/14 10:25:29;;;;;;;;;;;;;;;30.09;19.07;100380.25;5056101;28;831;-37
2020/12/14 10:27:54;;;;;;;;;;;;;;;30.13;18.90;100377.97;5056917;28;787;-38
2020/12/14 10:30:20;;;;;;;;;;;;;;;30.21;18.62;100388.59;5065749;28;1096;-37
2020/12/14 10:32:45;;;;;;;;;;;;;;;30.30;18.28;100384.59;5076007;28;1913;-36
2020/12/14 10:35:10;;;;;;;;;;;;;;;30.14;18.50;100388.59;5071556;28;994;-37
2020/12/14 10:37:36;;;;;;;;;;;;;;;30.05;18.51;100387.97;5056881;28;756;-36
2020/12/14 10:40:04;;;;;;;;;;;;;;;30.15;18.28;100398.38;5056256;28;856;-36
2020/12/14 10:42:30;;;;;;;;;;;;;;;30.16;19.38;100386.47;5056719;28;795;-37
2020/12/14 10:44:55;;;;;;;;;;;;;;;30.13;20.91;100392.34;5056960;28;798;-37
2020/12/14 10:47:20;;;;;;;;;;;;;;;30.19;21.99;100398.81;5056036;28;911;-39
2020/12/14 10:49:45;;;;;;;;;;;;;;;30.15;22.27;100403.81;5056383;28;952;-38
2020/12/14 10:52:11;;;;;;;;;;;;;;;30.12;21.77;100393.38;5062907;28;1914;-37
2020/12/14 10:54:36;;;;;;;;;;;;;;;29.94;21.73;100397.59;5076068;28;787;-38
2020/12/14 10:57:02;;;;;;;;;;;;;;;30.08;21.41;100407.59;5076652;28;812;-38
2020/12/14 10:59:27;;;;;;;;;;;;;;;30.33;20.78;100405.03;5076473;28;730;-37
2020/12/14 11:01:52;;;;;;;;;;;;;;;30.22;20.37;100402.97;5075738;28;860;-36
2020/12/14 11:04:18;;;;;;;;;;;;;;;30.11;19.94;100397.16;5076699;28;788;-39
2020/12/14 11:06:43;;;;;;;;;;;;;;;30.27;19.77;100395.88;5058059;28;1581;-33
2020/12/14 11:09:08;;;;;;;;;;;;;;;30.34;19.47;100395.03;5058677;28;764;-36
2020/12/14 11:11:35;;;;;;;;;;;;;;;30.36;19.29;100384.78;5060483;28;1914;-34
2020/12/14 11:14:00;;;;;;;;;;;;;;;30.57;18.89;100391.81;5060264;28;750;-36
2020/12/14 11:16:26;;;;;;;;;;;;;;;30.47;18.88;100392.28;5060019;28;767;-33
2020/12/14 11:18:52;;;;;;;;;;;;;;;30.55;18.91;100399.31;5059866;28;1318;-34
2020/12/14 11:21:17;;;;;;;;;;;;;;;27.91;21.72;100394.22;5060085;28;1022;-32
2020/12/14 11:23:42;;;;;;;;;;;;;;;27.46;22.21;100411.53;5059814;28;804;-36
2020/12/14 11:26:08;;;;;;;;;;;;;;;30.10;19.60;100422.59;5060300;28;799;-39
2020/12/14 11:28:33;;;;;;;;;;;;;;;30.62;18.59;100416.44;5060065;28;839;-38
2020/12/14 11:30:58;;;;;;;;;;;;;;;29.90;19.32;100412.63;5073595;28;1969;-38
2020/12/14 11:33:23;;;;;;;;;;;;;;;29.82;19.20;100418.25;5080309;28;764;-32
2020/12/14 11:35:49;;;;;;;;;;;;;;;29.80;19.20;100413.03;5069579;28;994;-36
2020/12/14 11:38:14;;;;;;;;;;;;;;;29.94;19.17;100423.88;5059602;28;779;-35
2020/12/14 11:40:40;;;;;;;;;;;;;;;29.96;19.01;100434.53;5060015;28;828;-36
2020/12/14 11:43:06;;;;;;;;;;;;;;;29.93;18.99;100427.63;5059630;28;776;-35
2020/12/14 11:45:31;;;;;;;;;;;;;;;29.89;19.07;100437.22;5059525;28;800;-36
2020/12/14 11:47:56;;;;;;;;;;;;;;;29.97;19.39;100434.31;5059859;28;815;-35
2020/12/14 11:50:21;;;;;;;;;;;;;;;30.02;18.88;100436.38;5041239;28;1367;-37
2020/12/14 11:52:47;;;;;;;;;;;;;;;30.19;18.99;100442.22;5040724;28;1973;-31
2020/12/14 11:55:13;;;;;;;;;;;;;;;30.12;19.05;100439.50;5059633;28;795;-36
2020/12/14 11:57:38;;;;;;;;;;;;;;;30.16;18.85;100435.31;5059803;28;799;-38
2020/12/14 12:00:04;;;;;;;;;;;;;;;30.23;18.88;100438.03;5059272;28;823;-38
2020/12/14 12:02:30;;;;;;;;;;;;;;;30.36;19.03;100447.22;5059219;28;902;-39
2020/12/14 12:04:55;;;;;;;;;;;;;;;30.27;19.16;100438.44;5059408;28;951;-34
2020/12/14 12:07:20;;;;;;;;;;;;;;;30.53;19.21;100450.31;5059218;28;775;-37
2020/12/14 12:09:46;;;;;;;;;;;;;;;30.66;18.93;100439.38;5058995;28;1021;-36
2020/12/14 12:12:12;;;;;;;;;;;;;;;29.69;19.67;100444.34;5058921;28;1968;-36
2020/12/14 12:14:37;;;;;;;;;;;;;;;28.10;21.94;100440.53;5059601;28;799;-38
2020/12/14 12:17:02;;;;;;;;;;;;;;;29.04;20.83;100439.41;5058934;28;804;-36
2020/12/14 12:19:27;;;;;;;;;;;;;;;29.68;20.17;100439.94;5076671;28;1410;-38
2020/12/14 12:21:53;;;;;;;;;;;;;;;29.72;19.83;100445.78;5075481;28;1010;-39
2020/12/14 12:24:21;;;;;;;;;;;;;;;29.57;20.25;100433.25;5078602;28;826;-38
2020/12/14 12:26:49;;;;;;;;;;;;;;;29.67;20.05;100448.28;5078819;28;803;-38
2020/12/14 12:29:15;;;;;;;;;;;;;;;29.82;19.64;100443.50;5078379;28;800;-38
2020/12/14 12:31:41;;;;;;;;;;;;;;;30.04;19.13;100437.00;5078689;28;1909;-37
2020/12/14 12:34:06;;;;;;;;;;;;;;;29.93;19.22;100443.88;5079089;28;847;-38
2020/12/14 12:36:31;;;;;;;;;;;;;;;30.12;18.96;100452.22;5062316;28;994;-32
2020/12/14 12:38:56;;;;;;;;;;;;;;;30.16;19.01;100448.88;5058755;28;839;-37
2020/12/14 12:41:22;;;;;;;;;;;;;;;30.23;18.87;100448.88;5058719;28;798;-36
2020/12/14 12:43:47;;;;;;;;;;;;;;;30.28;18.59;100453.72;5058778;28;859;-36
2020/12/14 12:46:12;;;;;;;;;;;;;;;30.43;18.37;100456.16;5058377;28;776;-35
2020/12/14 12:48:37;;;;;;;;;;;;;;;30.43;18.41;100448.84;5058734;28;820;-36